sensor_id;sensor_type;location;lat;lon;timestamp;pressure;altitude;pressure_sealevel;temperature;humidity
8705;BME280;4389;41.932;25.904;2023-05-19T00:00:55;100380.09;;;14.58;93.17
8705;BME280;4389;41.932;25.904;2023-05-19T00:03:23;100382.94;;;14.57;92.59
8705;BME280;4389;41.932;25.904;2023-05-19T00:05:53;100381.09;;;14.57;92.83
8705;BME280;4389;41.932;25.904;2023-05-19T00:08:22;100380.59;;;14.62;92.87
8705;BME280;4389;41.932;25.904;2023-05-19T00:10:49;100378.75;;;14.54;92.57
8705;BME280;4389;41.932;25.904;2023-05-19T00:13:16;100371.09;;;14.51;92.67
8705;BME280;4389;41.932;25.904;2023-05-19T00:15:44;100377.59;;;14.49;92.73
8705;BME280;4389;41.932;25.904;2023-05-19T00:18:11;100378.94;;;14.53;92.11
8705;BME280;4389;41.932;25.904;2023-05-19T00:20:38;100379.25;;;14.58;91.30
8705;BME280;4389;41.932;25.904;2023-05-19T00:23:07;100382.09;;;14.56;91.56
8705;BME280;4389;41.932;25.904;2023-05-19T00:25:33;100381.44;;;14.62;91.07
8705;BME280;4389;41.932;25.904;2023-05-19T00:28:00;100378.59;;;14.56;91.23
8705;BME280;4389;41.932;25.904;2023-05-19T00:30:28;100370.44;;;14.57;91.03
8705;BME280;4389;41.932;25.904;2023-05-19T00:32:55;100365.13;;;14.57;90.78
8705;BME280;4389;41.932;25.904;2023-05-19T00:35:22;100376.59;;;14.58;90.63
8705;BME280;4389;41.932;25.904;2023-05-19T00:37:49;100364.63;;;14.54;90.98
8705;BME280;4389;41.932;25.904;2023-05-19T00:40:17;100367.09;;;14.55;91.35
8705;BME280;4389;41.932;25.904;2023-05-19T00:42:44;100367.59;;;14.51;91.31
8705;BME280;4389;41.932;25.904;2023-05-19T00:45:11;100363.94;;;14.52;91.33
8705;BME280;4389;41.932;25.904;2023-05-19T00:47:38;100373.91;;;14.50;91.23
8705;BME280;4389;41.932;25.904;2023-05-19T00:50:05;100378.59;;;14.56;90.90
8705;BME280;4389;41.932;25.904;2023-05-19T00:52:32;100373.63;;;14.61;90.25
8705;BME280;4389;41.932;25.904;2023-05-19T00:54:59;100365.63;;;14.61;90.08
8705;BME280;4389;41.932;25.904;2023-05-19T00:57:28;100364.78;;;14.60;90.40
8705;BME280;4389;41.932;25.904;2023-05-19T00:59:55;100357.47;;;14.62;90.36
8705;BME280;4389;41.932;25.904;2023-05-19T01:02:21;100358.66;;;14.60;90.48
8705;BME280;4389;41.932;25.904;2023-05-19T01:04:49;100363.97;;;14.60;90.15
8705;BME280;4389;41.932;25.904;2023-05-19T01:07:18;100345.00;;;14.63;90.20
8705;BME280;4389;41.932;25.904;2023-05-19T01:09:46;100357.47;;;14.62;90.05
8705;BME280;4389;41.932;25.904;2023-05-19T01:12:13;100350.47;;;14.61;90.20
8705;BME280;4389;41.932;25.904;2023-05-19T01:14:41;100359.31;;;14.62;90.09
8705;BME280;4389;41.932;25.904;2023-05-19T01:17:13;100358.97;;;14.57;90.17
8705;BME280;4389;41.932;25.904;2023-05-19T01:19:52;100359.31;;;14.62;89.69
8705;BME280;4389;41.932;25.904;2023-05-19T01:22:51;100362.63;;;14.56;89.97
8705;BME280;4389;41.932;25.904;2023-05-19T01:25:35;100337.84;;;14.63;89.55
8705;BME280;4389;41.932;25.904;2023-05-19T01:31:05;100344.63;;;14.58;89.82
8705;BME280;4389;41.932;25.904;2023-05-19T01:33:36;100332.66;;;14.54;90.19
8705;BME280;4389;41.932;25.904;2023-05-19T01:36:06;100353.63;;;14.57;90.07
8705;BME280;4389;41.932;25.904;2023-05-19T01:38:34;100347.50;;;14.56;90.01
8705;BME280;4389;41.932;25.904;2023-05-19T01:41:05;100344.31;;;14.53;89.94
8705;BME280;4389;41.932;25.904;2023-05-19T01:43:32;100346.66;;;14.56;90.00
8705;BME280;4389;41.932;25.904;2023-05-19T01:46:01;100345.66;;;14.57;89.60
8705;BME280;4389;41.932;25.904;2023-05-19T01:48:30;100345.78;;;14.55;89.97
8705;BME280;4389;41.932;25.904;2023-05-19T01:50:57;100352.63;;;14.66;89.54
8705;BME280;4389;41.932;25.904;2023-05-19T01:53:25;100345.00;;;14.63;89.57
8705;BME280;4389;41.932;25.904;2023-05-19T01:55:54;100345.50;;;14.58;89.09
8705;BME280;4389;41.932;25.904;2023-05-19T01:58:36;100353.97;;;14.62;89.52
8705;BME280;4389;41.932;25.904;2023-05-19T02:01:11;100344.97;;;14.55;89.44
8705;BME280;4389;41.932;25.904;2023-05-19T02:03:52;100351.13;;;14.55;89.75
8705;BME280;4389;41.932;25.904;2023-05-19T02:06:28;100357.28;;;14.56;89.44
8705;BME280;4389;41.932;25.904;2023-05-19T02:09:01;100351.63;;;14.51;89.61
8705;BME280;4389;41.932;25.904;2023-05-19T02:11:35;100355.44;;;14.48;89.91
8705;BME280;4389;41.932;25.904;2023-05-19T02:14:07;100355.94;;;14.52;89.28
8705;BME280;4389;41.932;25.904;2023-05-19T02:16:35;100374.25;;;14.47;90.00
8705;BME280;4389;41.932;25.904;2023-05-19T02:19:04;100365.91;;;14.42;90.11
8705;BME280;4389;41.932;25.904;2023-05-19T02:21:30;100368.22;;;14.37;90.56
8705;BME280;4389;41.932;25.904;2023-05-19T02:23:57;100367.91;;;14.32;90.87
8705;BME280;4389;41.932;25.904;2023-05-19T02:26:24;100366.41;;;14.29;91.19
8705;BME280;4389;41.932;25.904;2023-05-19T02:28:51;100378.19;;;14.27;91.30
8705;BME280;4389;41.932;25.904;2023-05-19T02:31:18;100375.69;;;14.25;91.53
8705;BME280;4389;41.932;25.904;2023-05-19T02:33:45;100372.13;;;14.17;91.96
8705;BME280;4389;41.932;25.904;2023-05-19T02:36:13;100380.28;;;14.15;92.47
8705;BME280;4389;41.932;25.904;2023-05-19T02:38:40;100378.94;;;14.11;92.59
8705;BME280;4389;41.932;25.904;2023-05-19T02:41:07;100374.09;;;14.07;92.88
8705;BME280;4389;41.932;25.904;2023-05-19T02:43:33;100382.41;;;14.04;92.98
8705;BME280;4389;41.932;25.904;2023-05-19T02:46:00;100384.72;;;13.99;93.28
8705;BME280;4389;41.932;25.904;2023-05-19T02:48:27;100374.06;;;13.99;93.25
8705;BME280;4389;41.932;25.904;2023-05-19T02:50:54;100386.72;;;13.97;93.60
8705;BME280;4389;41.932;25.904;2023-05-19T02:53:22;100390.66;;;13.93;93.80
8705;BME280;4389;41.932;25.904;2023-05-19T02:55:49;100392.66;;;13.91;94.16
8705;BME280;4389;41.932;25.904;2023-05-19T02:58:16;100393.97;;;13.87;94.31
8705;BME280;4389;41.932;25.904;2023-05-19T03:00:45;100398.59;;;13.85;94.08
8705;BME280;4389;41.932;25.904;2023-05-19T03:03:12;100403.94;;;13.85;94.12
8705;BME280;4389;41.932;25.904;2023-05-19T03:05:39;100400.28;;;13.86;94.24
8705;BME280;4389;41.932;25.904;2023-05-19T03:08:06;100414.56;;;13.85;94.46
8705;BME280;4389;41.932;25.904;2023-05-19T03:10:35;100411.25;;;13.83;93.94
8705;BME280;4389;41.932;25.904;2023-05-19T03:13:01;100409.91;;;13.87;94.35
8705;BME280;4389;41.932;25.904;2023-05-19T03:15:28;100418.00;;;14.03;93.97
8705;BME280;4389;41.932;25.904;2023-05-19T03:17:55;100420.66;;;14.36;92.56
8705;BME280;4389;41.932;25.904;2023-05-19T03:20:22;100435.69;;;14.69;90.88
8705;BME280;4389;41.932;25.904;2023-05-19T03:22:49;100435.41;;;14.88;89.15
8705;BME280;4389;41.932;25.904;2023-05-19T03:25:16;100442.25;;;15.07;88.20
8705;BME280;4389;41.932;25.904;2023-05-19T03:27:44;100442.22;;;14.75;88.93
8705;BME280;4389;41.932;25.904;2023-05-19T03:30:12;100446.84;;;14.65;89.33
8705;BME280;4389;41.932;25.904;2023-05-19T03:32:39;100453.50;;;14.53;89.29
8705;BME280;4389;41.932;25.904;2023-05-19T03:35:07;100447.34;;;14.60;89.84
8705;BME280;4389;41.932;25.904;2023-05-19T03:37:34;100461.16;;;14.64;89.35
8705;BME280;4389;41.932;25.904;2023-05-19T03:40:00;100460.25;;;14.89;88.67
8705;BME280;4389;41.932;25.904;2023-05-19T03:42:29;100456.63;;;15.54;86.59
8705;BME280;4389;41.932;25.904;2023-05-19T03:44:57;100469.81;;;16.26;83.03
8705;BME280;4389;41.932;25.904;2023-05-19T03:47:24;100463.66;;;16.64;81.13
8705;BME280;4389;41.932;25.904;2023-05-19T03:49:51;100473.88;;;16.91;79.68
8705;BME280;4389;41.932;25.904;2023-05-19T03:52:17;100481.16;;;17.50;77.85
8705;BME280;4389;41.932;25.904;2023-05-19T03:54:44;100482.06;;;17.42;76.67
8705;BME280;4389;41.932;25.904;2023-05-19T03:57:11;100477.75;;;17.56;75.97
8705;BME280;4389;41.932;25.904;2023-05-19T03:59:38;100484.44;;;17.74;75.52
8705;BME280;4389;41.932;25.904;2023-05-19T04:02:07;100485.28;;;17.38;76.07
8705;BME280;4389;41.932;25.904;2023-05-19T04:04:34;100483.03;;;16.66;79.77
8705;BME280;4389;41.932;25.904;2023-05-19T04:07:01;100482.84;;;16.21;81.73
8705;BME280;4389;41.932;25.904;2023-05-19T04:09:28;100480.84;;;16.15;82.20
8705;BME280;4389;41.932;25.904;2023-05-19T04:11:56;100481.31;;;16.42;81.95
8705;BME280;4389;41.932;25.904;2023-05-19T04:14:23;100486.38;;;16.98;79.54
8705;BME280;4389;41.932;25.904;2023-05-19T04:16:50;100497.25;;;17.87;76.12
8705;BME280;4389;41.932;25.904;2023-05-19T04:19:19;100489.81;;;18.40;72.51
8705;BME280;4389;41.932;25.904;2023-05-19T04:21:46;100497.44;;;18.87;71.28
8705;BME280;4389;41.932;25.904;2023-05-19T04:24:13;100494.06;;;18.35;72.01
8705;BME280;4389;41.932;25.904;2023-05-19T04:26:43;100500.41;;;18.63;71.64
8705;BME280;4389;41.932;25.904;2023-05-19T04:29:11;100495.22;;;18.18;72.64
8705;BME280;4389;41.932;25.904;2023-05-19T04:31:38;100494.31;;;17.37;75.56
8705;BME280;4389;41.932;25.904;2023-05-19T04:34:05;100489.06;;;17.66;76.28
8705;BME280;4389;41.932;25.904;2023-05-19T04:36:35;100495.06;;;18.34;72.97
8705;BME280;4389;41.932;25.904;2023-05-19T04:39:03;100494.13;;;18.56;71.71
8705;BME280;4389;41.932;25.904;2023-05-19T04:41:32;100502.41;;;18.75;71.96
8705;BME280;4389;41.932;25.904;2023-05-19T04:43:59;100509.00;;;19.22;70.21
8705;BME280;4389;41.932;25.904;2023-05-19T04:46:26;100511.88;;;19.21;69.26
8705;BME280;4389;41.932;25.904;2023-05-19T04:48:54;100516.56;;;19.19;69.25
8705;BME280;4389;41.932;25.904;2023-05-19T04:51:21;100507.94;;;19.02;69.85
8705;BME280;4389;41.932;25.904;2023-05-19T04:53:54;100513.53;;;18.87;71.46
8705;BME280;4389;41.932;25.904;2023-05-19T04:56:21;100514.81;;;18.04;74.37
8705;BME280;4389;41.932;25.904;2023-05-19T04:58:48;100510.66;;;17.42;76.36
8705;BME280;4389;41.932;25.904;2023-05-19T05:01:15;100510.44;;;16.98;78.22
8705;BME280;4389;41.932;25.904;2023-05-19T05:03:42;100518.63;;;16.97;79.26
8705;BME280;4389;41.932;25.904;2023-05-19T05:06:08;100508.88;;;17.04;79.57
8705;BME280;4389;41.932;25.904;2023-05-19T05:08:36;100514.88;;;17.06;79.26
8705;BME280;4389;41.932;25.904;2023-05-19T05:11:07;100510.88;;;17.10;80.21
8705;BME280;4389;41.932;25.904;2023-05-19T05:13:34;100517.78;;;16.96;80.56
8705;BME280;4389;41.932;25.904;2023-05-19T05:16:02;100516.00;;;17.11;80.14
8705;BME280;4389;41.932;25.904;2023-05-19T05:18:31;100520.25;;;17.28;80.31
8705;BME280;4389;41.932;25.904;2023-05-19T05:20:59;100519.47;;;17.20;79.35
8705;BME280;4389;41.932;25.904;2023-05-19T05:23:26;100520.66;;;16.95;79.39
8705;BME280;4389;41.932;25.904;2023-05-19T05:25:54;100528.13;;;16.99;80.37
8705;BME280;4389;41.932;25.904;2023-05-19T05:28:22;100523.28;;;17.03;79.63
8705;BME280;4389;41.932;25.904;2023-05-19T05:30:49;100533.16;;;17.25;79.34
8705;BME280;4389;41.932;25.904;2023-05-19T05:33:16;100536.47;;;17.27;78.95
8705;BME280;4389;41.932;25.904;2023-05-19T05:35:43;100553.28;;;17.43;79.20
8705;BME280;4389;41.932;25.904;2023-05-19T05:38:11;100538.53;;;17.47;78.44
8705;BME280;4389;41.932;25.904;2023-05-19T05:40:38;100545.69;;;17.55;78.10
8705;BME280;4389;41.932;25.904;2023-05-19T05:43:05;100538.06;;;17.66;78.79
8705;BME280;4389;41.932;25.904;2023-05-19T05:45:33;100539.47;;;17.77;78.42
8705;BME280;4389;41.932;25.904;2023-05-19T05:48:00;100547.66;;;17.98;77.99
8705;BME280;4389;41.932;25.904;2023-05-19T05:50:27;100548.75;;;17.89;77.92
8705;BME280;4389;41.932;25.904;2023-05-19T05:52:56;100551.78;;;18.23;77.90
8705;BME280;4389;41.932;25.904;2023-05-19T05:55:27;100550.16;;;18.14;75.17
8705;BME280;4389;41.932;25.904;2023-05-19T05:57:55;100546.94;;;18.04;77.64
8705;BME280;4389;41.932;25.904;2023-05-19T06:00:23;100551.56;;;18.10;77.30
8705;BME280;4389;41.932;25.904;2023-05-19T06:02:53;100558.84;;;18.01;77.46
8705;BME280;4389;41.932;25.904;2023-05-19T06:05:21;100562.13;;;18.26;77.06
8705;BME280;4389;41.932;25.904;2023-05-19T06:07:49;100547.66;;;18.35;75.71
8705;BME280;4389;41.932;25.904;2023-05-19T06:10:16;100557.19;;;18.52;75.83
8705;BME280;4389;41.932;25.904;2023-05-19T06:12:43;100574.94;;;18.53;74.04
8705;BME280;4389;41.932;25.904;2023-05-19T06:15:10;100564.75;;;18.34;76.30
8705;BME280;4389;41.932;25.904;2023-05-19T06:17:37;100575.47;;;18.34;75.83
8705;BME280;4389;41.932;25.904;2023-05-19T06:20:06;100569.28;;;18.77;76.48
8705;BME280;4389;41.932;25.904;2023-05-19T06:22:34;100565.78;;;18.62;75.55
8705;BME280;4389;41.932;25.904;2023-05-19T06:25:01;100567.34;;;18.71;75.04
8705;BME280;4389;41.932;25.904;2023-05-19T06:27:28;100572.19;;;19.10;75.73
8705;BME280;4389;41.932;25.904;2023-05-19T06:29:55;100572.31;;;19.38;72.72
8705;BME280;4389;41.932;25.904;2023-05-19T06:32:22;100576.88;;;19.37;72.45
8705;BME280;4389;41.932;25.904;2023-05-19T06:34:49;100577.53;;;19.60;72.35
8705;BME280;4389;41.932;25.904;2023-05-19T06:37:20;100573.56;;;19.56;72.04
8705;BME280;4389;41.932;25.904;2023-05-19T06:39:48;100580.47;;;19.65;72.31
8705;BME280;4389;41.932;25.904;2023-05-19T06:42:17;100579.06;;;19.69;72.13
8705;BME280;4389;41.932;25.904;2023-05-19T06:44:47;100580.84;;;19.62;72.76
8705;BME280;4389;41.932;25.904;2023-05-19T06:47:14;100588.13;;;19.89;71.67
8705;BME280;4389;41.932;25.904;2023-05-19T06:49:41;100588.00;;;19.97;70.85
8705;BME280;4389;41.932;25.904;2023-05-19T06:52:08;100575.34;;;19.91;72.00
8705;BME280;4389;41.932;25.904;2023-05-19T06:54:36;100584.66;;;19.68;71.47
8705;BME280;4389;41.932;25.904;2023-05-19T06:57:04;100585.19;;;19.63;73.00
8705;BME280;4389;41.932;25.904;2023-05-19T06:59:31;100576.19;;;19.50;73.37
8705;BME280;4389;41.932;25.904;2023-05-19T07:01:58;100592.50;;;19.69;72.71
8705;BME280;4389;41.932;25.904;2023-05-19T07:04:26;100577.59;;;19.67;72.25
8705;BME280;4389;41.932;25.904;2023-05-19T07:06:53;100584.81;;;19.87;71.88
8705;BME280;4389;41.932;25.904;2023-05-19T07:09:20;100574.31;;;20.13;71.89
8705;BME280;4389;41.932;25.904;2023-05-19T07:11:48;100571.97;;;20.31;71.19
8705;BME280;4389;41.932;25.904;2023-05-19T07:14:15;100573.97;;;20.50;71.69
8705;BME280;4389;41.932;25.904;2023-05-19T07:16:42;100584.38;;;20.32;68.86
8705;BME280;4389;41.932;25.904;2023-05-19T07:19:09;100578.38;;;20.30;68.72
8705;BME280;4389;41.932;25.904;2023-05-19T07:21:36;100591.69;;;20.38;67.43
8705;BME280;4389;41.932;25.904;2023-05-19T07:24:03;100583.22;;;20.41;66.28
8705;BME280;4389;41.932;25.904;2023-05-19T07:26:30;100582.75;;;20.65;66.72
8705;BME280;4389;41.932;25.904;2023-05-19T07:28:58;100569.53;;;20.70;68.52
8705;BME280;4389;41.932;25.904;2023-05-19T07:31:25;100567.00;;;20.96;68.50
8705;BME280;4389;41.932;25.904;2023-05-19T07:33:52;100580.72;;;21.08;66.29
8705;BME280;4389;41.932;25.904;2023-05-19T07:36:18;100568.59;;;21.25;67.47
8705;BME280;4389;41.932;25.904;2023-05-19T07:38:46;100569.00;;;21.35;67.24
8705;BME280;4389;41.932;25.904;2023-05-19T07:41:12;100564.63;;;21.27;64.08
8705;BME280;4389;41.932;25.904;2023-05-19T07:43:39;100574.88;;;21.51;65.44
8705;BME280;4389;41.932;25.904;2023-05-19T07:46:07;100579.63;;;21.62;64.39
8705;BME280;4389;41.932;25.904;2023-05-19T07:48:34;100570.81;;;21.75;63.92
8705;BME280;4389;41.932;25.904;2023-05-19T07:51:01;100578.47;;;21.97;65.70
8705;BME280;4389;41.932;25.904;2023-05-19T07:53:28;100578.91;;;22.07;63.11
8705;BME280;4389;41.932;25.904;2023-05-19T07:55:54;100578.88;;;22.59;61.87
8705;BME280;4389;41.932;25.904;2023-05-19T07:58:21;100584.06;;;22.61;60.69
8705;BME280;4389;41.932;25.904;2023-05-19T08:00:48;100579.72;;;22.27;62.33
8705;BME280;4389;41.932;25.904;2023-05-19T08:03:16;100575.59;;;21.92;62.91
8705;BME280;4389;41.932;25.904;2023-05-19T08:05:43;100583.47;;;22.13;62.87
8705;BME280;4389;41.932;25.904;2023-05-19T08:08:10;100588.41;;;22.36;61.04
8705;BME280;4389;41.932;25.904;2023-05-19T08:10:37;100585.53;;;22.24;62.72
8705;BME280;4389;41.932;25.904;2023-05-19T08:13:04;100580.97;;;22.18;62.46
8705;BME280;4389;41.932;25.904;2023-05-19T08:15:30;100580.94;;;22.51;63.86
8705;BME280;4389;41.932;25.904;2023-05-19T08:17:57;100574.28;;;22.40;62.90
8705;BME280;4389;41.932;25.904;2023-05-19T08:20:25;100580.75;;;22.52;63.43
8705;BME280;4389;41.932;25.904;2023-05-19T08:22:52;100585.47;;;22.83;61.72
8705;BME280;4389;41.932;25.904;2023-05-19T08:25:19;100579.47;;;22.61;63.08
8705;BME280;4389;41.932;25.904;2023-05-19T08:27:46;100582.97;;;22.88;62.82
8705;BME280;4389;41.932;25.904;2023-05-19T08:30:13;100586.41;;;23.08;61.81
8705;BME280;4389;41.932;25.904;2023-05-19T08:32:40;100599.97;;;22.95;61.24
8705;BME280;4389;41.932;25.904;2023-05-19T08:35:08;100595.19;;;22.90;61.96
8705;BME280;4389;41.932;25.904;2023-05-19T08:37:36;100573.38;;;22.98;63.66
8705;BME280;4389;41.932;25.904;2023-05-19T08:40:04;100575.88;;;22.93;61.65
8705;BME280;4389;41.932;25.904;2023-05-19T08:42:31;100589.38;;;22.93;61.31
8705;BME280;4389;41.932;25.904;2023-05-19T08:44:58;100597.09;;;22.77;61.80
8705;BME280;4389;41.932;25.904;2023-05-19T08:47:26;100583.69;;;23.21;61.13
8705;BME280;4389;41.932;25.904;2023-05-19T08:50:04;100582.63;;;23.59;59.04
8705;BME280;4389;41.932;25.904;2023-05-19T08:52:41;100589.47;;;23.99;57.32
8705;BME280;4389;41.932;25.904;2023-05-19T08:55:19;100587.66;;;23.93;55.18
8705;BME280;4389;41.932;25.904;2023-05-19T08:57:50;100579.25;;;23.70;55.09
8705;BME280;4389;41.932;25.904;2023-05-19T09:00:18;100582.63;;;23.59;54.82
8705;BME280;4389;41.932;25.904;2023-05-19T09:02:48;100582.72;;;23.46;56.22
8705;BME280;4389;41.932;25.904;2023-05-19T09:05:16;100584.88;;;23.31;56.09
8705;BME280;4389;41.932;25.904;2023-05-19T09:07:45;100576.50;;;23.46;56.20
8705;BME280;4389;41.932;25.904;2023-05-19T09:10:13;100588.78;;;23.73;56.38
8705;BME280;4389;41.932;25.904;2023-05-19T09:12:42;100571.59;;;23.98;54.77
8705;BME280;4389;41.932;25.904;2023-05-19T09:15:10;100568.66;;;24.00;54.50
8705;BME280;4389;41.932;25.904;2023-05-19T09:17:37;100574.34;;;23.54;54.23
8705;BME280;4389;41.932;25.904;2023-05-19T09:20:05;100574.78;;;23.51;55.17
8705;BME280;4389;41.932;25.904;2023-05-19T09:22:40;100572.94;;;23.76;56.69
8705;BME280;4389;41.932;25.904;2023-05-19T09:25:22;100558.84;;;23.74;56.55
8705;BME280;4389;41.932;25.904;2023-05-19T09:27:49;100569.53;;;23.63;53.87
8705;BME280;4389;41.932;25.904;2023-05-19T09:30:16;100578.88;;;23.67;54.37
8705;BME280;4389;41.932;25.904;2023-05-19T09:32:44;100572.09;;;23.82;55.21
8705;BME280;4389;41.932;25.904;2023-05-19T09:35:11;100579.44;;;24.06;52.29
8705;BME280;4389;41.932;25.904;2023-05-19T09:37:42;100588.44;;;24.00;51.48
8705;BME280;4389;41.932;25.904;2023-05-19T09:40:13;100574.31;;;24.23;50.51
8705;BME280;4389;41.932;25.904;2023-05-19T09:42:41;100588.69;;;23.86;49.81
8705;BME280;4389;41.932;25.904;2023-05-19T09:45:09;100586.91;;;24.04;51.78
8705;BME280;4389;41.932;25.904;2023-05-19T09:47:36;100582.28;;;24.11;50.83
8705;BME280;4389;41.932;25.904;2023-05-19T09:50:04;100576.28;;;24.33;51.00
8705;BME280;4389;41.932;25.904;2023-05-19T09:52:34;100575.94;;;24.48;51.95
8705;BME280;4389;41.932;25.904;2023-05-19T09:55:01;100586.03;;;24.59;51.03
8705;BME280;4389;41.932;25.904;2023-05-19T09:57:33;100578.53;;;24.79;49.67
8705;BME280;4389;41.932;25.904;2023-05-19T10:00:04;100572.19;;;25.03;48.32
8705;BME280;4389;41.932;25.904;2023-05-19T10:02:40;100574.78;;;24.98;50.10
8705;BME280;4389;41.932;25.904;2023-05-19T10:05:10;100572.97;;;24.92;50.50
8705;BME280;4389;41.932;25.904;2023-05-19T10:07:41;100578.00;;;24.28;51.36
8705;BME280;4389;41.932;25.904;2023-05-19T10:10:11;100572.31;;;24.12;51.47
8705;BME280;4389;41.932;25.904;2023-05-19T10:12:38;100569.78;;;24.17;51.54
8705;BME280;4389;41.932;25.904;2023-05-19T10:15:09;100576.94;;;24.05;51.48
8705;BME280;4389;41.932;25.904;2023-05-19T10:17:37;100565.75;;;24.01;48.80
8705;BME280;4389;41.932;25.904;2023-05-19T10:20:07;100567.19;;;24.04;50.92
8705;BME280;4389;41.932;25.904;2023-05-19T10:22:36;100570.34;;;24.43;49.03
8705;BME280;4389;41.932;25.904;2023-05-19T10:25:03;100553.56;;;24.59;49.06
8705;BME280;4389;41.932;25.904;2023-05-19T10:27:31;100550.72;;;24.90;49.29
8705;BME280;4389;41.932;25.904;2023-05-19T10:30:05;100547.97;;;25.08;48.43
8705;BME280;4389;41.932;25.904;2023-05-19T10:32:35;100542.84;;;25.77;48.89
8705;BME280;4389;41.932;25.904;2023-05-19T10:35:15;100545.13;;;25.91;45.97
8705;BME280;4389;41.932;25.904;2023-05-19T10:37:53;100534.91;;;26.05;45.35
8705;BME280;4389;41.932;25.904;2023-05-19T10:40:26;100537.75;;;26.33;46.56
8705;BME280;4389;41.932;25.904;2023-05-19T10:43:03;100547.06;;;26.37;45.08
8705;BME280;4389;41.932;25.904;2023-05-19T10:45:37;100549.28;;;26.17;44.05
8705;BME280;4389;41.932;25.904;2023-05-19T10:48:13;100542.19;;;25.52;46.93
8705;BME280;4389;41.932;25.904;2023-05-19T10:50:42;100542.41;;;25.21;47.43
8705;BME280;4389;41.932;25.904;2023-05-19T10:53:13;100540.16;;;25.00;44.92
8705;BME280;4389;41.932;25.904;2023-05-19T10:55:49;100534.59;;;25.42;45.40
8705;BME280;4389;41.932;25.904;2023-05-19T10:58:39;100527.88;;;25.86;46.37
8705;BME280;4389;41.932;25.904;2023-05-19T11:01:15;100524.94;;;25.76;44.38
8705;BME280;4389;41.932;25.904;2023-05-19T11:03:48;100522.88;;;25.71;45.72
8705;BME280;4389;41.932;25.904;2023-05-19T11:06:17;100526.78;;;25.64;44.65
8705;BME280;4389;41.932;25.904;2023-05-19T11:08:44;100518.84;;;25.51;44.37
8705;BME280;4389;41.932;25.904;2023-05-19T11:11:13;100518.78;;;25.69;46.00
8705;BME280;4389;41.932;25.904;2023-05-19T11:13:42;100517.25;;;25.73;44.63
8705;BME280;4389;41.932;25.904;2023-05-19T11:16:12;100516.81;;;25.76;42.96
8705;BME280;4389;41.932;25.904;2023-05-19T11:18:39;100510.16;;;25.60;43.04
8705;BME280;4389;41.932;25.904;2023-05-19T11:21:07;100523.41;;;25.39;46.30
8705;BME280;4389;41.932;25.904;2023-05-19T11:23:37;100523.03;;;25.35;45.27
8705;BME280;4389;41.932;25.904;2023-05-19T11:26:05;100512.56;;;25.39;43.90
8705;BME280;4389;41.932;25.904;2023-05-19T11:28:34;100507.75;;;25.41;45.55
8705;BME280;4389;41.932;25.904;2023-05-19T11:31:01;100508.09;;;25.33;45.74
8705;BME280;4389;41.932;25.904;2023-05-19T11:33:28;100503.44;;;25.04;46.20
8705;BME280;4389;41.932;25.904;2023-05-19T11:35:57;100525.03;;;25.10;45.19
8705;BME280;4389;41.932;25.904;2023-05-19T11:38:27;100502.88;;;25.13;45.77
8705;BME280;4389;41.932;25.904;2023-05-19T11:40:54;100498.44;;;25.19;44.83
8705;BME280;4389;41.932;25.904;2023-05-19T11:43:22;100504.75;;;25.31;41.83
8705;BME280;4389;41.932;25.904;2023-05-19T11:45:49;100500.84;;;25.68;43.61
8705;BME280;4389;41.932;25.904;2023-05-19T11:48:19;100490.63;;;25.81;41.97
8705;BME280;4389;41.932;25.904;2023-05-19T11:50:46;100491.44;;;25.82;40.65
8705;BME280;4389;41.932;25.904;2023-05-19T11:53:14;100485.66;;;25.78;42.09
8705;BME280;4389;41.932;25.904;2023-05-19T11:55:46;100492.09;;;25.95;41.17
8705;BME280;4389;41.932;25.904;2023-05-19T11:58:13;100487.94;;;26.16;42.44
8705;BME280;4389;41.932;25.904;2023-05-19T12:00:42;100486.53;;;25.90;42.47
8705;BME280;4389;41.932;25.904;2023-05-19T12:03:10;100490.09;;;25.61;42.68
8705;BME280;4389;41.932;25.904;2023-05-19T12:05:39;100492.91;;;26.19;43.03
8705;BME280;4389;41.932;25.904;2023-05-19T12:08:06;100480.13;;;26.31;42.11
8705;BME280;4389;41.932;25.904;2023-05-19T12:10:33;100485.31;;;26.44;40.80
8705;BME280;4389;41.932;25.904;2023-05-19T12:13:04;100476.00;;;26.51;42.67
8705;BME280;4389;41.932;25.904;2023-05-19T12:15:33;100483.41;;;25.87;42.91
8705;BME280;4389;41.932;25.904;2023-05-19T12:18:01;100465.50;;;25.86;43.75
8705;BME280;4389;41.932;25.904;2023-05-19T12:20:29;100481.34;;;26.12;43.66
8705;BME280;4389;41.932;25.904;2023-05-19T12:22:57;100481.56;;;26.22;43.90
8705;BME280;4389;41.932;25.904;2023-05-19T12:25:24;100475.09;;;26.11;43.90
8705;BME280;4389;41.932;25.904;2023-05-19T12:27:51;100477.22;;;26.21;43.67
8705;BME280;4389;41.932;25.904;2023-05-19T12:30:25;100487.69;;;26.29;43.10
8705;BME280;4389;41.932;25.904;2023-05-19T12:32:53;100535.16;;;25.74;46.18
8705;BME280;4389;41.932;25.904;2023-05-19T12:35:24;100560.84;;;23.85;49.37
8705;BME280;4389;41.932;25.904;2023-05-19T12:37:52;100569.91;;;22.78;53.11
8705;BME280;4389;41.932;25.904;2023-05-19T12:40:19;100600.69;;;21.99;57.14
8705;BME280;4389;41.932;25.904;2023-05-19T12:42:46;100599.50;;;21.48;62.00
8705;BME280;4389;41.932;25.904;2023-05-19T12:45:19;100595.81;;;21.02;64.69
8705;BME280;4389;41.932;25.904;2023-05-19T12:47:48;100601.75;;;20.91;66.22
8705;BME280;4389;41.932;25.904;2023-05-19T12:50:15;100595.44;;;20.78;67.65
8705;BME280;4389;41.932;25.904;2023-05-19T12:52:43;100583.84;;;20.77;67.79
8705;BME280;4389;41.932;25.904;2023-05-19T12:55:11;100596.84;;;20.67;67.63
8705;BME280;4389;41.932;25.904;2023-05-19T12:57:39;100604.31;;;20.72;67.45
8705;BME280;4389;41.932;25.904;2023-05-19T13:00:07;100595.13;;;20.87;67.17
8705;BME280;4389;41.932;25.904;2023-05-19T13:05:35;100602.06;;;21.16;65.32
8705;BME280;4389;41.932;25.904;2023-05-19T13:08:05;100606.84;;;21.20;64.49
8705;BME280;4389;41.932;25.904;2023-05-19T13:10:33;100608.50;;;21.15;59.36
8705;BME280;4389;41.932;25.904;2023-05-19T13:13:00;100612.19;;;21.07;61.74